createdAt,value
2018-03-30T00:01:00.500Z,90.50
2018-03-30T00:03:28.068Z,90.40
2018-03-30T00:05:56.349Z,90.30
2018-03-30T00:08:23.893Z,90.30
2018-03-30T00:10:54.243Z,90.30
2018-03-30T00:13:22.542Z,90.40
2018-03-30T00:15:50.089Z,90.30
2018-03-30T00:18:18.370Z,90.80
2018-03-30T00:20:45.905Z,90.70
2018-03-30T00:23:13.429Z,90.60
2018-03-30T00:25:40.982Z,90.50
2018-03-30T00:28:08.522Z,90.60
2018-03-30T00:30:36.048Z,90.30
2018-03-30T00:33:03.601Z,90.20
2018-03-30T00:35:31.127Z,90.50
2018-03-30T00:37:59.630Z,90.40
2018-03-30T00:40:27.158Z,90.40
2018-03-30T00:42:54.680Z,90.50
2018-03-30T00:45:22.239Z,90.70
2018-03-30T00:47:49.761Z,90.50
2018-03-30T00:50:17.299Z,90.40
2018-03-30T00:52:44.837Z,90.40
2018-03-30T00:55:14.304Z,90.20
2018-03-30T00:57:41.823Z,90.10
2018-03-30T01:00:09.342Z,90.00
2018-03-30T01:02:36.891Z,90.00
2018-03-30T01:05:04.418Z,90.10
2018-03-30T01:07:31.966Z,90.00
2018-03-30T01:09:59.487Z,89.60
2018-03-30T01:12:29.039Z,90.00
2018-03-30T01:14:57.498Z,89.80
2018-03-30T01:17:27.039Z,89.90
2018-03-30T01:19:55.350Z,90.10
2018-03-30T01:22:22.867Z,90.00
2018-03-30T01:24:50.426Z,90.20
2018-03-30T01:27:17.946Z,90.30
2018-03-30T01:29:45.495Z,90.40
2018-03-30T01:32:13.003Z,90.40
2018-03-30T01:34:40.534Z,90.20
2018-03-30T01:37:10.031Z,90.30
2018-03-30T01:39:37.555Z,90.40
2018-03-30T01:42:05.108Z,90.30
2018-03-30T01:44:33.600Z,90.50
2018-03-30T01:47:01.164Z,90.60
2018-03-30T01:49:28.683Z,90.50
2018-03-30T01:51:56.210Z,90.50
2018-03-30T01:54:25.741Z,90.90
2018-03-30T01:56:53.275Z,90.70
2018-03-30T01:59:20.831Z,91.00
2018-03-30T02:01:49.314Z,90.80
2018-03-30T02:04:18.895Z,91.00
2018-03-30T02:06:46.393Z,90.90
2018-03-30T02:09:13.946Z,90.90
2018-03-30T02:11:41.466Z,90.60
2018-03-30T02:14:08.982Z,90.70
2018-03-30T02:16:37.303Z,91.00
2018-03-30T02:19:05.803Z,91.00
2018-03-30T02:21:33.351Z,90.70
2018-03-30T02:24:00.880Z,90.80
2018-03-30T02:26:28.450Z,90.80
2018-03-30T02:28:55.967Z,91.20
2018-03-30T02:31:23.507Z,91.10
2018-03-30T02:33:51.057Z,91.00
2018-03-30T02:36:18.594Z,91.20
2018-03-30T02:38:46.151Z,91.20
2018-03-30T02:41:13.674Z,90.70
2018-03-30T02:43:41.980Z,90.30
2018-03-30T02:46:09.538Z,90.30
2018-03-30T02:48:37.097Z,90.20
2018-03-30T02:51:05.627Z,90.00
2018-03-30T02:53:33.185Z,90.00
2018-03-30T02:56:00.706Z,89.80
2018-03-30T02:58:28.230Z,88.80
2018-03-30T03:00:56.554Z,88.70
2018-03-30T03:03:24.087Z,88.70
2018-03-30T03:05:52.591Z,88.60
2018-03-30T03:08:20.104Z,88.70
2018-03-30T03:10:47.646Z,88.20
2018-03-30T03:13:15.158Z,88.30
2018-03-30T03:15:42.702Z,88.00
2018-03-30T03:18:10.230Z,88.90
2018-03-30T03:20:37.748Z,87.90
2018-03-30T03:23:05.310Z,87.50
2018-03-30T03:25:32.837Z,87.30
2018-03-30T03:28:00.374Z,86.30
2018-03-30T03:30:27.908Z,85.90
2018-03-30T03:32:55.436Z,85.50
2018-03-30T03:35:22.974Z,86.10
2018-03-30T03:37:50.481Z,86.00
2018-03-30T03:40:18.789Z,85.60
2018-03-30T03:42:47.072Z,85.00
2018-03-30T03:45:14.627Z,85.00
2018-03-30T03:47:42.159Z,85.10
2018-03-30T03:50:09.685Z,85.70
2018-03-30T03:52:38.202Z,85.90
2018-03-30T03:55:06.270Z,86.10
2018-03-30T03:57:33.838Z,87.60
2018-03-30T04:00:02.133Z,87.40
2018-03-30T04:02:29.714Z,87.40
2018-03-30T04:04:57.238Z,87.20
2018-03-30T04:07:25.545Z,87.50
2018-03-30T04:09:53.068Z,87.60
2018-03-30T04:12:21.349Z,87.70
2018-03-30T04:14:49.661Z,87.90
2018-03-30T04:17:17.511Z,88.00
2018-03-30T04:19:45.067Z,88.60
2018-03-30T04:22:13.559Z,89.30
2018-03-30T04:24:41.105Z,89.50
2018-03-30T04:27:08.631Z,89.30
2018-03-30T04:29:36.193Z,89.40
2018-03-30T04:32:03.711Z,89.60
2018-03-30T04:34:31.221Z,89.70
2018-03-30T04:37:00.507Z,89.10
2018-03-30T04:39:28.033Z,89.10
2018-03-30T04:41:56.570Z,89.20
2018-03-30T04:44:24.083Z,89.20
2018-03-30T04:46:51.636Z,89.80
2018-03-30T04:49:19.157Z,89.70
2018-03-30T04:51:46.705Z,89.40
2018-03-30T04:54:14.230Z,89.90
2018-03-30T04:56:41.752Z,89.80
2018-03-30T04:59:09.292Z,89.80
2018-03-30T05:01:36.817Z,89.90
2018-03-30T05:04:04.375Z,90.00
2018-03-30T05:06:31.906Z,90.00
2018-03-30T05:08:59.425Z,90.30
2018-03-30T05:11:26.977Z,90.40
2018-03-30T05:13:54.528Z,90.40
2018-03-30T05:16:22.092Z,90.60
2018-03-30T05:18:50.381Z,90.20
2018-03-30T05:21:17.930Z,90.20
2018-03-30T05:23:45.448Z,90.50
2018-03-30T05:26:12.957Z,90.20
2018-03-30T05:28:40.511Z,90.20
2018-03-30T05:31:08.051Z,90.20
2018-03-30T05:33:38.326Z,90.10
2018-03-30T05:36:05.847Z,90.10
2018-03-30T05:38:35.330Z,89.90
2018-03-30T05:41:04.584Z,90.30
2018-03-30T05:43:32.127Z,90.30
2018-03-30T05:45:59.891Z,90.30
2018-03-30T05:48:27.902Z,90.10
2018-03-30T05:50:55.493Z,90.20
2018-03-30T05:53:23.078Z,90.10
2018-03-30T05:55:50.639Z,90.30
2018-03-30T05:58:19.134Z,90.40
2018-03-30T06:00:46.695Z,90.60
2018-03-30T06:03:14.212Z,90.10
2018-03-30T06:05:41.735Z,90.10
2018-03-30T06:08:09.291Z,89.80
2018-03-30T06:10:37.774Z,89.30
2018-03-30T06:13:05.325Z,89.30
2018-03-30T06:15:32.846Z,88.70
2018-03-30T06:18:00.402Z,89.00
2018-03-30T06:20:27.925Z,88.10
2018-03-30T06:22:55.448Z,88.10
2018-03-30T06:25:23.968Z,88.00
2018-03-30T06:27:51.482Z,86.40
2018-03-30T06:30:19.053Z,86.10
2018-03-30T06:32:46.570Z,85.50
2018-03-30T06:35:14.139Z,84.90
2018-03-30T06:37:41.654Z,84.50
2018-03-30T06:40:09.186Z,83.90
2018-03-30T06:42:36.750Z,83.90
2018-03-30T06:45:04.263Z,83.50
2018-03-30T06:47:33.759Z,83.30
2018-03-30T06:50:01.291Z,81.70
2018-03-30T06:52:28.849Z,81.50
2018-03-30T06:54:56.370Z,80.50
2018-03-30T06:57:23.889Z,80.10
2018-03-30T06:59:52.202Z,79.00
2018-03-30T07:02:19.809Z,79.00
2018-03-30T07:04:47.357Z,78.10
2018-03-30T07:07:15.826Z,76.50
2018-03-30T07:09:43.371Z,75.70
2018-03-30T07:12:11.819Z,74.70
2018-03-30T07:14:39.338Z,73.00
2018-03-30T07:17:06.881Z,72.20
2018-03-30T07:19:34.417Z,71.40
2018-03-30T07:22:01.955Z,70.60
2018-03-30T07:24:29.474Z,71.40
2018-03-30T07:26:57.057Z,71.70
2018-03-30T07:29:24.567Z,70.80
2018-03-30T07:31:52.122Z,67.60
2018-03-30T07:34:19.665Z,65.90
2018-03-30T07:36:47.182Z,64.80
2018-03-30T07:39:15.351Z,64.80
2018-03-30T07:41:42.902Z,65.50
2018-03-30T07:44:10.490Z,65.80
2018-03-30T07:46:38.028Z,65.30
2018-03-30T07:49:05.554Z,63.40
2018-03-30T07:51:33.115Z,62.20
2018-03-30T07:54:00.650Z,61.40
2018-03-30T07:56:28.351Z,59.50
2018-03-30T07:58:55.884Z,58.30
2018-03-30T08:01:23.436Z,55.90
2018-03-30T08:03:51.921Z,55.20
2018-03-30T08:06:19.482Z,55.40
2018-03-30T08:08:46.998Z,54.50
2018-03-30T08:11:14.553Z,53.50
2018-03-30T08:13:42.102Z,53.80
2018-03-30T08:16:10.599Z,53.30
2018-03-30T08:18:38.163Z,53.60
2018-03-30T08:21:06.666Z,52.80
2018-03-30T08:23:34.205Z,53.10
2018-03-30T08:26:01.727Z,52.00
2018-03-30T08:28:29.278Z,51.90
2018-03-30T08:30:56.819Z,52.40
2018-03-30T08:33:24.339Z,51.60
2018-03-30T08:35:51.889Z,50.80
2018-03-30T08:38:20.178Z,50.40
2018-03-30T08:40:47.727Z,50.50
2018-03-30T08:43:15.244Z,50.50
2018-03-30T08:45:42.786Z,50.30
2018-03-30T08:48:10.303Z,50.80
2018-03-30T08:50:39.795Z,50.40
2018-03-30T08:53:07.370Z,49.30
2018-03-30T08:55:34.901Z,50.20
2018-03-30T08:58:02.475Z,50.90
2018-03-30T09:00:30.018Z,50.30
2018-03-30T09:03:00.297Z,49.60
2018-03-30T09:05:27.832Z,49.50
2018-03-30T09:07:55.399Z,49.90
2018-03-30T09:10:22.938Z,49.00
2018-03-30T09:12:50.472Z,47.40
2018-03-30T09:15:20.682Z,45.80
2018-03-30T09:17:48.214Z,45.80
2018-03-30T09:20:15.934Z,45.10
2018-03-30T09:22:43.457Z,44.50
2018-03-30T09:25:11.002Z,44.50
2018-03-30T09:27:38.521Z,43.60
2018-03-30T09:30:06.085Z,43.80
2018-03-30T09:32:33.701Z,42.90
2018-03-30T09:35:01.208Z,45.10
2018-03-30T09:37:28.772Z,44.50
2018-03-30T09:39:56.290Z,43.60
2018-03-30T09:42:24.603Z,43.30
2018-03-30T09:44:52.137Z,42.60
2018-03-30T09:47:19.694Z,43.40
2018-03-30T09:49:47.206Z,42.90
2018-03-30T09:52:14.787Z,40.00
2018-03-30T09:54:42.315Z,41.10
2018-03-30T09:57:09.841Z,41.90
2018-03-30T09:59:37.386Z,40.60
2018-03-30T10:02:04.918Z,40.40
2018-03-30T10:04:32.501Z,38.90
2018-03-30T10:07:00.794Z,37.80
2018-03-30T10:09:28.361Z,37.80
2018-03-30T10:11:55.903Z,38.40
2018-03-30T10:14:24.503Z,37.80
2018-03-30T10:16:52.019Z,37.70
2018-03-30T10:19:20.332Z,37.30
2018-03-30T10:21:47.866Z,37.30
2018-03-30T10:24:15.414Z,36.20
2018-03-30T10:26:42.952Z,37.30
2018-03-30T10:29:10.518Z,37.20
2018-03-30T10:31:38.070Z,37.80
2018-03-30T10:34:05.595Z,36.90
2018-03-30T10:36:33.160Z,37.60
2018-03-30T10:39:00.679Z,39.20
2018-03-30T10:41:28.226Z,38.70
2018-03-30T10:43:55.745Z,38.80
2018-03-30T10:46:23.316Z,39.00
2018-03-30T10:48:51.817Z,39.00
2018-03-30T10:51:19.347Z,39.80
2018-03-30T10:53:46.885Z,39.60
2018-03-30T10:56:14.409Z,40.10
2018-03-30T10:58:42.741Z,38.80
2018-03-30T11:01:10.278Z,38.80
2018-03-30T11:03:37.835Z,38.60
2018-03-30T11:06:06.354Z,39.00
2018-03-30T11:08:35.843Z,39.40
2018-03-30T11:11:04.342Z,38.20
2018-03-30T11:13:31.863Z,36.40
2018-03-30T11:15:59.429Z,37.60
2018-03-30T11:18:27.172Z,35.90
2018-03-30T11:20:54.738Z,36.10
2018-03-30T11:23:22.290Z,36.20
2018-03-30T11:25:49.834Z,34.40
2018-03-30T11:28:18.158Z,35.50
2018-03-30T11:30:46.762Z,35.50
2018-03-30T11:33:14.292Z,34.20
2018-03-30T11:35:41.847Z,34.60
2018-03-30T11:38:09.367Z,43.90
2018-03-30T11:40:38.630Z,47.20
2018-03-30T11:43:06.181Z,47.70
2018-03-30T11:45:33.700Z,47.00
2018-03-30T11:48:02.011Z,53.50
2018-03-30T11:50:29.558Z,53.50
2018-03-30T11:52:57.132Z,53.70
2018-03-30T11:55:24.655Z,52.00
2018-03-30T11:57:52.210Z,52.80
2018-03-30T12:00:19.744Z,55.70
2018-03-30T12:02:47.270Z,56.10
2018-03-30T12:05:14.820Z,55.50
2018-03-30T12:07:42.342Z,53.30
2018-03-30T12:10:09.901Z,51.80
2018-03-30T12:12:37.421Z,53.40
2018-03-30T12:15:05.778Z,50.90
2018-03-30T12:17:33.293Z,49.10
2018-03-30T12:20:01.602Z,48.30
2018-03-30T12:22:29.129Z,48.30
2018-03-30T12:24:57.432Z,42.70
2018-03-30T12:27:26.930Z,42.70
2018-03-30T12:29:54.457Z,38.40
2018-03-30T12:32:22.010Z,40.30
2018-03-30T12:34:49.533Z,35.80
2018-03-30T12:37:17.087Z,35.30
2018-03-30T12:39:44.613Z,33.40
2018-03-30T12:42:12.141Z,32.70
2018-03-30T12:44:39.690Z,32.40
2018-03-30T12:47:07.206Z,32.00
2018-03-30T12:49:34.753Z,32.60
2018-03-30T12:52:02.278Z,32.00
2018-03-30T12:54:29.827Z,32.00
2018-03-30T12:56:57.353Z,39.40
2018-03-30T12:59:24.912Z,43.40
2018-03-30T13:01:52.430Z,43.40
2018-03-30T13:04:20.755Z,32.60
2018-03-30T13:06:48.286Z,32.60
2018-03-30T13:09:15.805Z,33.70
2018-03-30T13:11:44.339Z,33.60
2018-03-30T13:14:11.863Z,33.60
2018-03-30T13:16:39.407Z,33.50
2018-03-30T13:19:06.948Z,33.70
2018-03-30T13:21:34.492Z,34.70
2018-03-30T13:24:02.070Z,34.90
2018-03-30T13:26:29.632Z,34.30
2018-03-30T13:28:57.147Z,34.80
2018-03-30T13:31:24.658Z,41.60
2018-03-30T13:33:52.216Z,45.30
2018-03-30T13:36:19.741Z,48.90
2018-03-30T13:38:47.299Z,51.40
2018-03-30T13:41:14.858Z,53.70
2018-03-30T13:43:42.432Z,54.20
2018-03-30T13:46:09.965Z,54.90
2018-03-30T13:48:37.507Z,55.20
2018-03-30T13:51:13.827Z,54.90
2018-03-30T13:53:43.330Z,53.50
2018-03-30T13:56:14.698Z,56.20
2018-03-30T13:58:44.131Z,55.10
2018-03-30T14:01:28.133Z,54.10
2018-03-30T14:06:57.761Z,57.10
2018-03-30T14:09:27.951Z,57.50
2018-03-30T14:12:01.218Z,58.50
2018-03-30T14:14:28.867Z,59.60
2018-03-30T14:17:03.169Z,60.50
2018-03-30T14:19:36.515Z,61.80
2018-03-30T14:22:14.924Z,63.30
2018-03-30T14:24:44.249Z,63.90
2018-03-30T14:30:20.730Z,63.60
2018-03-30T14:32:54.096Z,64.20
2018-03-30T14:35:28.286Z,64.90
2018-03-30T14:38:11.542Z,67.30
2018-03-30T14:40:39.107Z,67.30
2018-03-30T14:43:11.435Z,67.70
2018-03-30T14:45:53.865Z,69.30
2018-03-30T14:48:32.291Z,72.10
2018-03-30T14:54:15.831Z,75.60
2018-03-30T14:56:47.908Z,76.00
2018-03-30T14:59:20.040Z,75.20
2018-03-30T15:04:53.979Z,72.90
2018-03-30T15:07:25.146Z,73.40
2018-03-30T15:09:58.195Z,74.60
2018-03-30T15:12:31.658Z,73.70
2018-03-30T15:15:01.034Z,78.40
2018-03-30T15:17:35.183Z,77.50
2018-03-30T15:20:12.706Z,77.00
2018-03-30T15:22:46.910Z,77.10
2018-03-30T15:25:15.180Z,76.40
2018-03-30T15:27:44.610Z,76.00
2018-03-30T15:30:15.806Z,77.40
2018-03-30T15:32:54.984Z,77.00
2018-03-30T15:35:22.551Z,78.50
2018-03-30T15:37:50.074Z,78.60
2018-03-30T15:40:17.624Z,81.00
2018-03-30T15:42:58.922Z,81.80
2018-03-30T15:45:28.134Z,81.90
2018-03-30T15:47:56.442Z,82.90
2018-03-30T15:50:24.003Z,83.00
2018-03-30T15:52:51.558Z,84.60
2018-03-30T15:55:19.122Z,85.50
2018-03-30T15:57:46.702Z,86.00
2018-03-30T16:00:14.219Z,86.70
2018-03-30T16:02:41.761Z,88.00
2018-03-30T16:05:09.290Z,89.20
2018-03-30T16:07:36.890Z,90.20
2018-03-30T16:10:20.786Z,90.30
2018-03-30T16:12:49.094Z,90.30
2018-03-30T16:15:16.622Z,91.20
2018-03-30T16:17:44.176Z,92.40
2018-03-30T16:20:12.207Z,91.80
2018-03-30T16:22:39.226Z,92.40
2018-03-30T16:25:07.274Z,91.00
2018-03-30T16:27:34.298Z,91.60
2018-03-30T16:30:01.389Z,91.30
2018-03-30T16:32:29.194Z,93.50
2018-03-30T16:34:56.275Z,93.50
2018-03-30T16:37:23.330Z,94.10
2018-03-30T16:39:50.366Z,93.70
2018-03-30T16:42:17.422Z,92.80
2018-03-30T16:44:44.449Z,90.30
2018-03-30T16:47:11.507Z,91.60
2018-03-30T16:49:38.550Z,92.50
2018-03-30T16:52:05.617Z,93.00
2018-03-30T16:54:32.646Z,92.20
2018-03-30T16:56:59.678Z,92.50
2018-03-30T16:59:26.726Z,92.40
2018-03-30T17:01:54.731Z,93.10
2018-03-30T17:04:22.920Z,90.70
2018-03-30T17:06:51.689Z,92.40
2018-03-30T17:09:18.743Z,92.40
2018-03-30T17:11:45.767Z,92.10
2018-03-30T17:14:12.802Z,90.20
2018-03-30T17:16:40.870Z,90.20
2018-03-30T17:19:08.712Z,91.10
2018-03-30T17:21:35.787Z,90.80
2018-03-30T17:24:02.818Z,91.20
2018-03-30T17:26:29.864Z,87.00
2018-03-30T17:28:57.894Z,87.80
2018-03-30T17:31:25.711Z,89.10
2018-03-30T17:33:53.718Z,89.10
2018-03-30T17:36:20.758Z,90.30
2018-03-30T17:38:47.820Z,90.30
2018-03-30T17:41:14.849Z,90.60
2018-03-30T17:43:42.883Z,91.10
2018-03-30T17:46:09.917Z,90.60
2018-03-30T17:48:36.994Z,91.20
2018-03-30T17:51:04.103Z,92.80
2018-03-30T17:53:31.885Z,92.40
2018-03-30T17:55:58.997Z,92.40
2018-03-30T17:58:27.785Z,94.00
2018-03-30T18:00:56.586Z,93.90
2018-03-30T18:03:23.636Z,93.90
2018-03-30T18:05:50.690Z,93.80
2018-03-30T18:08:18.726Z,93.60
2018-03-30T18:10:45.785Z,93.20
2018-03-30T18:13:13.641Z,93.20
2018-03-30T18:15:40.681Z,93.20
2018-03-30T18:18:08.522Z,94.60
2018-03-30T18:20:36.499Z,94.60
2018-03-30T18:23:05.408Z,94.70
2018-03-30T18:25:33.247Z,93.50
2018-03-30T18:28:00.258Z,93.50
2018-03-30T18:30:27.322Z,93.90
2018-03-30T18:32:54.368Z,93.70
2018-03-30T18:35:21.434Z,93.90
2018-03-30T18:37:48.457Z,93.30
2018-03-30T18:40:15.523Z,93.80
2018-03-30T18:42:42.546Z,93.30
2018-03-30T18:45:10.576Z,93.20
2018-03-30T18:47:38.495Z,92.50
2018-03-30T18:50:06.070Z,92.50
2018-03-30T18:52:33.113Z,92.70
2018-03-30T18:55:01.136Z,93.00
2018-03-30T18:57:28.425Z,92.90
2018-03-30T18:59:55.491Z,92.30
2018-03-30T19:02:22.541Z,93.30
2018-03-30T19:04:49.569Z,93.20
2018-03-30T19:07:16.641Z,93.20
2018-03-30T19:09:44.009Z,93.60
2018-03-30T19:12:11.067Z,92.90
2018-03-30T19:14:38.088Z,93.20
2018-03-30T19:17:06.376Z,93.40
2018-03-30T19:19:35.190Z,93.70
2018-03-30T19:22:02.229Z,93.70
2018-03-30T19:24:30.048Z,94.20
2018-03-30T19:26:57.080Z,94.10
2018-03-30T19:29:24.138Z,94.60
2018-03-30T19:31:51.171Z,94.30
2018-03-30T19:34:19.195Z,95.00
2018-03-30T19:36:47.188Z,94.90
2018-03-30T19:39:14.979Z,95.40
2018-03-30T19:41:42.030Z,95.40
2018-03-30T19:44:09.062Z,95.10
2018-03-30T19:46:36.134Z,95.10
2018-03-30T19:49:03.166Z,94.80
2018-03-30T19:51:30.242Z,95.20
2018-03-30T19:53:58.260Z,95.30
2018-03-30T19:56:25.331Z,94.90
2018-03-30T19:58:53.339Z,94.50
2018-03-30T20:01:20.378Z,95.20
2018-03-30T20:03:47.716Z,95.20
2018-03-30T20:06:14.743Z,95.00
2018-03-30T20:08:41.785Z,95.30
2018-03-30T20:11:08.826Z,95.40
2018-03-30T20:13:35.882Z,96.60
2018-03-30T20:16:03.879Z,95.80
2018-03-30T20:18:30.894Z,95.40
2018-03-30T20:20:57.949Z,95.30
2018-03-30T20:23:24.980Z,95.60
2018-03-30T20:25:52.817Z,95.80
2018-03-30T20:28:19.853Z,95.70
2018-03-30T20:30:46.918Z,95.70
2018-03-30T20:33:13.979Z,95.50
2018-03-30T20:35:41.040Z,95.10
2018-03-30T20:38:08.090Z,95.20
2018-03-30T20:40:36.091Z,95.40
2018-03-30T20:43:03.174Z,95.50
2018-03-30T20:45:30.223Z,95.50
2018-03-30T20:47:57.304Z,95.30
2018-03-30T20:50:24.330Z,95.40
2018-03-30T20:52:51.704Z,95.90
2018-03-30T20:55:18.753Z,96.20
2018-03-30T20:57:45.915Z,95.50
2018-03-30T21:00:12.986Z,95.80
2018-03-30T21:02:40.009Z,95.90
2018-03-30T21:05:08.054Z,95.50
2018-03-30T21:07:35.842Z,95.60
2018-03-30T21:10:03.839Z,95.60
2018-03-30T21:12:30.866Z,96.30
2018-03-30T21:14:57.908Z,96.10
2018-03-30T21:17:24.937Z,95.90
2018-03-30T21:19:52.006Z,95.10
2018-03-30T21:22:19.057Z,95.00
2018-03-30T21:24:46.100Z,95.20
2018-03-30T21:27:13.155Z,95.60
2018-03-30T21:29:40.218Z,96.50
2018-03-30T21:32:08.240Z,96.20
2018-03-30T21:34:35.270Z,95.50
2018-03-30T21:37:04.097Z,94.60
2018-03-30T21:39:31.120Z,94.60
2018-03-30T21:41:59.867Z,94.40
2018-03-30T21:44:27.910Z,94.40
2018-03-30T21:46:55.926Z,95.00
2018-03-30T21:49:22.981Z,94.70
2018-03-30T21:51:50.030Z,95.00
2018-03-30T21:54:18.075Z,94.20
2018-03-30T21:56:45.102Z,94.50
2018-03-30T21:59:12.150Z,94.40
2018-03-30T22:01:39.209Z,95.20
2018-03-30T22:04:06.244Z,94.50
2018-03-30T22:06:33.474Z,94.60
2018-03-30T22:09:01.470Z,94.90
2018-03-30T22:11:29.497Z,94.90
2018-03-30T22:13:57.475Z,95.40
2018-03-30T22:16:24.528Z,95.00
2018-03-30T22:18:51.565Z,94.90
2018-03-30T22:21:18.620Z,94.80
2018-03-30T22:23:45.639Z,94.80
2018-03-30T22:26:14.418Z,94.60
2018-03-30T22:28:41.459Z,94.60
2018-03-30T22:31:09.255Z,95.40
2018-03-30T22:33:36.330Z,95.10
2018-03-30T22:36:04.334Z,95.10
2018-03-30T22:38:31.381Z,94.90
2018-03-30T22:40:58.404Z,94.80
2018-03-30T22:43:25.473Z,95.10
2018-03-30T22:45:52.595Z,95.40
2018-03-30T22:48:19.669Z,95.40
2018-03-30T22:50:46.976Z,95.80
2018-03-30T22:53:14.013Z,95.70
2018-03-30T22:55:42.059Z,95.50
2018-03-30T22:58:09.096Z,95.40
2018-03-30T23:00:37.109Z,95.70
2018-03-30T23:03:04.148Z,95.60
2018-03-30T23:05:31.213Z,95.20
2018-03-30T23:07:58.229Z,95.40
2018-03-30T23:10:26.242Z,95.20
2018-03-30T23:12:53.279Z,95.80
2018-03-30T23:15:20.318Z,95.50
2018-03-30T23:17:47.366Z,95.20
2018-03-30T23:20:14.395Z,95.10
2018-03-30T23:22:41.460Z,95.10
2018-03-30T23:25:08.505Z,95.10
2018-03-30T23:27:36.538Z,95.00
2018-03-30T23:30:04.531Z,94.30
2018-03-30T23:32:31.578Z,94.40
2018-03-30T23:34:59.596Z,94.40
2018-03-30T23:37:27.658Z,94.10
2018-03-30T23:39:54.690Z,94.40
2018-03-30T23:42:21.768Z,94.60
2018-03-30T23:44:48.823Z,94.90
2018-03-30T23:47:16.831Z,94.70
2018-03-30T23:49:43.888Z,94.80
2018-03-30T23:52:11.911Z,94.70
2018-03-30T23:54:38.994Z,94.50
2018-03-30T23:57:06.051Z,94.40
2018-03-30T23:59:33.114Z,94.20
